Time;durP1;ratioP1;P1;durP2;ratioP2;P2;SDS_P1;SDS_P2;PMS_P1;PMS_P2;Temp;Humidity;BMP_temperature;BMP_pressure;BME280_temperature;BME280_humidity;BME280_pressure;Samples;Min_cycle;Max_cycle;Signal;HPM_P1;HPM_P2
2024/02/05 00:02:11;;;;;;;5.78;2.20;;;13.60;82.80;;;;;;4891606;29;20021;-83
2024/02/05 00:04:36;;;;;;;7.78;2.60;;;13.60;82.80;;;;;;4899652;29;20088;-88
2024/02/05 00:07:02;;;;;;;5.35;2.33;;;13.60;82.80;;;;;;4888838;29;20032;-81
2024/02/05 00:09:28;;;;;;;5.95;2.50;;;13.60;82.80;;;;;;4893020;29;20032;-88
2024/02/05 00:11:54;;;;;;;7.38;2.50;;;13.60;82.80;;;;;;4895194;29;20073;-83
2024/02/05 00:14:19;;;;;;;5.50;2.55;;;13.60;82.80;;;;;;4906623;29;20398;-77
2024/02/05 00:16:45;;;;;;;4.82;2.17;;;13.60;82.80;;;;;;4873362;29;20085;-89
2024/02/05 00:19:12;;;;;;;5.82;2.10;;;13.60;82.80;;;;;;4892012;29;20028;-88
2024/02/05 00:21:38;;;;;;;6.43;2.75;;;13.60;82.80;;;;;;4890243;29;20036;-88
2024/02/05 00:24:04;;;;;;;4.40;2.28;;;13.60;82.80;;;;;;4886691;29;20092;-88
2024/02/05 00:26:30;;;;;;;6.05;2.75;;;13.60;82.90;;;;;;4889602;29;20043;-83
2024/02/05 00:28:56;;;;;;;4.93;2.63;;;13.60;82.90;;;;;;4888168;29;20029;-78
2024/02/05 00:31:21;;;;;;;4.00;2.45;;;13.60;83.00;;;;;;4901286;29;20025;-83
2024/02/05 00:33:47;;;;;;;6.53;3.00;;;13.60;82.80;;;;;;4870108;29;20165;-77
2024/02/05 00:36:13;;;;;;;4.95;2.58;;;13.60;82.90;;;;;;4883459;29;20029;-77
2024/02/05 00:38:38;;;;;;;5.95;2.38;;;13.60;82.80;;;;;;4876026;29;20033;-82
2024/02/05 00:41:04;;;;;;;4.55;2.33;;;13.60;82.80;;;;;;4889447;29;20043;-80
2024/02/05 00:43:30;;;;;;;6.55;2.85;;;13.60;82.80;;;;;;4886628;29;20039;-80
2024/02/05 00:45:56;;;;;;;6.20;2.45;;;13.50;82.80;;;;;;4887294;29;20033;-82
2024/02/05 00:48:21;;;;;;;5.93;2.65;;;13.60;82.80;;;;;;4892228;29;20040;-83
2024/02/05 00:50:47;;;;;;;9.35;3.20;;;13.60;82.90;;;;;;4873220;29;20039;-80
2024/02/05 00:53:13;;;;;;;5.68;2.55;;;13.60;82.90;;;;;;4886274;29;20120;-77
2024/02/05 00:55:39;;;;;;;5.75;2.80;;;13.60;82.90;;;;;;4886418;29;20382;-77
2024/02/05 00:58:05;;;;;;;6.57;2.88;;;13.60;82.90;;;;;;4873036;29;20146;-87
2024/02/05 01:00:30;;;;;;;4.65;2.35;;;13.60;82.90;;;;;;4884832;29;20127;-77
2024/02/05 01:02:56;;;;;;;6.45;2.70;;;13.60;82.90;;;;;;4893634;29;20506;-80
2024/02/05 01:05:23;;;;;;;6.63;2.60;;;13.50;82.80;;;;;;4890397;29;20080;-80
2024/02/05 01:07:49;;;;;;;5.18;2.45;;;13.60;82.90;;;;;;4888145;29;20048;-77
2024/02/05 01:10:14;;;;;;;6.35;2.80;;;13.50;82.80;;;;;;4901028;29;20036;-85
2024/02/05 01:12:40;;;;;;;5.50;2.50;;;13.60;82.90;;;;;;4872965;29;20092;-83
2024/02/05 01:15:06;;;;;;;5.20;2.50;;;13.50;82.90;;;;;;4894890;29;20029;-89
2024/02/05 01:17:32;;;;;;;5.50;2.47;;;13.50;82.90;;;;;;4893537;29;20061;-88
2024/02/05 01:19:58;;;;;;;5.05;2.58;;;13.50;82.90;;;;;;4894140;29;20021;-89
2024/02/05 01:22:25;;;;;;;6.55;2.53;;;13.50;82.90;;;;;;4892717;29;20387;-88
2024/02/05 01:24:50;;;;;;;6.63;2.58;;;13.50;82.90;;;;;;4877901;29;20501;-80
2024/02/05 01:27:16;;;;;;;6.85;2.50;;;13.50;82.90;;;;;;4893901;29;20529;-83
2024/02/05 01:29:42;;;;;;;5.28;2.63;;;13.50;82.90;;;;;;4887597;29;20041;-82
2024/02/05 01:32:08;;;;;;;5.47;2.42;;;13.50;82.90;;;;;;4887276;29;20262;-80
2024/02/05 01:34:34;;;;;;;5.28;2.53;;;13.50;82.90;;;;;;4865553;29;20093;-82
2024/02/05 01:36:59;;;;;;;6.47;3.00;;;13.50;82.90;;;;;;4875956;29;20024;-82
2024/02/05 01:39:25;;;;;;;5.78;2.72;;;13.50;82.90;;;;;;4903162;29;20040;-80
2024/02/05 01:41:51;;;;;;;6.25;3.20;;;13.50;82.90;;;;;;4889870;29;20031;-80
2024/02/05 01:44:17;;;;;;;8.60;2.60;;;13.50;82.90;;;;;;4885179;29;20513;-80
2024/02/05 01:46:43;;;;;;;6.47;2.35;;;13.50;82.90;;;;;;4889723;29;20041;-87
2024/02/05 01:49:11;;;;;;;6.32;2.90;;;13.50;82.90;;;;;;4890451;29;20025;-88
2024/02/05 01:51:40;;;;;;;5.82;2.55;;;13.50;82.90;;;;;;4893187;29;20119;-80
2024/02/05 01:54:08;;;;;;;4.35;2.50;;;13.50;82.90;;;;;;4892187;29;20088;-80
2024/02/05 01:56:34;;;;;;;5.25;2.80;;;13.50;82.90;;;;;;4886587;29;20040;-82
2024/02/05 01:59:00;;;;;;;8.68;2.80;;;13.50;82.90;;;;;;4893582;29;20032;-87
2024/02/05 02:01:29;;;;;;;5.25;2.20;;;13.50;82.90;;;;;;4892688;29;20057;-83
2024/02/05 02:03:55;;;;;;;5.13;2.53;;;13.50;82.90;;;;;;4882044;29;20100;-77
2024/02/05 02:06:22;;;;;;;5.88;2.45;;;13.50;83.00;;;;;;4898080;29;20112;-87
2024/02/05 02:08:49;;;;;;;4.18;2.63;;;13.40;82.90;;;;;;4897317;29;20024;-88
2024/02/05 02:11:15;;;;;;;6.28;2.78;;;13.40;83.00;;;;;;4896082;29;20044;-82
2024/02/05 02:13:42;;;;;;;5.72;2.83;;;13.40;83.00;;;;;;4883489;29;20078;-82
2024/02/05 02:16:13;;;;;;;6.93;2.92;;;13.40;83.60;;;;;;4897095;29;20020;-88
2024/02/05 02:18:41;;;;;;;7.22;3.05;;;13.40;83.00;;;;;;4890858;29;20044;-80
2024/02/05 02:21:09;;;;;;;9.38;3.05;;;13.40;83.00;;;;;;4889237;29;20033;-88
2024/02/05 02:23:35;;;;;;;6.18;2.45;;;13.40;83.00;;;;;;4878966;29;20031;-86
2024/02/05 02:26:01;;;;;;;7.07;2.70;;;13.40;83.00;;;;;;4885317;29;20092;-85
2024/02/05 02:28:27;;;;;;;5.82;2.63;;;13.40;83.00;;;;;;4905609;29;20041;-88
2024/02/05 02:30:54;;;;;;;7.60;2.83;;;13.40;83.00;;;;;;4873260;29;20032;-77
2024/02/05 02:33:45;;;;;;;6.18;2.53;;;13.40;83.00;;;;;;4888656;29;20039;-80
2024/02/05 02:36:15;;;;;;;5.35;2.22;;;13.40;83.10;;;;;;4889934;29;20032;-77
2024/02/05 02:39:03;;;;;;;7.25;2.97;;;13.40;83.00;;;;;;4889068;29;20039;-77
2024/02/05 02:41:35;;;;;;;4.22;2.50;;;13.40;83.00;;;;;;4875848;29;20036;-80
2024/02/05 02:44:02;;;;;;;6.07;2.63;;;13.30;82.90;;;;;;4874652;29;20033;-77
2024/02/05 02:46:29;;;;;;;7.63;2.30;;;13.40;83.00;;;;;;4892392;29;20036;-80
2024/02/05 02:48:55;;;;;;;3.70;2.20;;;13.40;83.00;;;;;;4886186;29;20060;-80
2024/02/05 02:51:21;;;;;;;5.47;2.53;;;13.30;83.00;;;;;;4888533;29;20079;-77
2024/02/05 02:53:47;;;;;;;5.13;2.50;;;13.30;83.00;;;;;;4886679;29;20071;-80
2024/02/05 02:56:13;;;;;;;6.22;2.72;;;13.30;83.00;;;;;;4877889;29;20029;-87
2024/02/05 02:58:39;;;;;;;6.20;2.78;;;13.30;83.00;;;;;;4880985;29;20040;-88
2024/02/05 03:01:05;;;;;;;5.95;2.75;;;13.30;83.00;;;;;;4894280;29;20052;-82
2024/02/05 03:03:31;;;;;;;6.82;2.88;;;13.30;83.00;;;;;;4875598;29;20032;-81
2024/02/05 03:05:57;;;;;;;5.78;2.30;;;13.30;83.00;;;;;;4884161;29;20033;-88
2024/02/05 03:08:23;;;;;;;5.25;2.60;;;13.30;83.00;;;;;;4889906;29;20024;-89
2024/02/05 03:10:50;;;;;;;10.27;2.95;;;13.30;83.00;;;;;;4900713;29;20075;-81
2024/02/05 03:13:16;;;;;;;6.10;2.85;;;13.30;83.00;;;;;;4900806;29;20035;-76
2024/02/05 03:15:41;;;;;;;4.70;2.60;;;13.20;82.90;;;;;;4888788;29;20033;-80
2024/02/05 03:18:08;;;;;;;6.60;2.65;;;13.20;82.90;;;;;;4896289;29;20036;-88
2024/02/05 03:20:38;;;;;;;5.95;2.90;;;13.20;82.90;;;;;;4892104;29;20043;-80
2024/02/05 03:23:06;;;;;;;7.63;2.80;;;13.20;83.00;;;;;;4888486;29;20218;-87
2024/02/05 03:25:33;;;;;;;6.47;2.78;;;13.20;83.00;;;;;;4889118;29;20059;-79
2024/02/05 03:28:00;;;;;;;6.88;2.80;;;13.20;83.00;;;;;;4887891;29;20036;-77
2024/02/05 03:30:32;;;;;;;7.32;2.92;;;13.20;83.00;;;;;;4890341;29;20688;-80
2024/02/05 03:33:00;;;;;;;6.85;3.08;;;13.20;83.00;;;;;;4873075;29;20036;-77
2024/02/05 03:35:27;;;;;;;7.32;3.10;;;13.20;83.00;;;;;;4872812;29;20040;-77
2024/02/05 03:37:53;;;;;;;5.78;3.15;;;13.20;83.00;;;;;;4888415;29;20035;-77
2024/02/05 03:40:23;;;;;;;7.03;3.13;;;13.20;83.00;;;;;;4890021;29;20029;-87
2024/02/05 03:42:49;;;;;;;7.30;3.25;;;13.20;83.00;;;;;;4894997;29;20032;-86
2024/02/05 03:45:16;;;;;;;7.43;3.58;;;13.20;83.00;;;;;;4873183;29;20035;-77
2024/02/05 03:47:42;;;;;;;7.72;2.80;;;13.20;83.00;;;;;;4886919;29;20047;-77
2024/02/05 03:50:11;;;;;;;7.40;3.13;;;13.20;83.00;;;;;;4873530;29;20037;-88
2024/02/05 03:52:43;;;;;;;5.82;2.70;;;13.20;83.00;;;;;;4889073;29;20024;-82
2024/02/05 03:55:10;;;;;;;6.22;3.33;;;13.20;83.00;;;;;;4893235;29;20437;-81
2024/02/05 03:57:39;;;;;;;8.60;3.83;;;13.20;83.00;;;;;;4894028;29;20032;-77
2024/02/05 04:00:08;;;;;;;5.35;2.63;;;13.10;83.00;;;;;;4890361;29;20461;-80
2024/02/05 04:02:40;;;;;;;5.78;2.80;;;13.10;83.00;;;;;;4887053;29;20342;-87
2024/02/05 04:05:07;;;;;;;5.95;3.17;;;13.10;83.00;;;;;;4895786;29;20025;-87
2024/02/05 04:07:34;;;;;;;7.20;3.40;;;13.10;83.00;;;;;;4896104;29;20044;-82
2024/02/05 04:10:00;;;;;;;5.88;2.92;;;13.10;83.10;;;;;;4888071;29;20029;-82
2024/02/05 04:12:26;;;;;;;6.57;3.42;;;13.10;83.00;;;;;;4890469;29;20039;-88
2024/02/05 04:14:52;;;;;;;5.10;2.92;;;13.10;83.00;;;;;;4886010;29;20104;-80
2024/02/05 04:17:18;;;;;;;6.30;2.90;;;13.10;83.00;;;;;;4892220;29;20034;-77
2024/02/05 04:19:44;;;;;;;6.85;3.35;;;13.10;83.10;;;;;;4887688;29;20469;-82
2024/02/05 04:22:13;;;;;;;6.32;2.78;;;13.10;83.10;;;;;;4893117;29;20470;-77
2024/02/05 04:24:39;;;;;;;5.60;3.28;;;13.10;83.10;;;;;;4889045;29;20029;-77
2024/02/05 04:27:08;;;;;;;5.90;2.78;;;13.10;83.10;;;;;;4886594;29;20032;-82
2024/02/05 04:29:34;;;;;;;6.03;3.45;;;13.10;83.10;;;;;;4892677;29;20068;-87
2024/02/05 04:32:00;;;;;;;5.80;3.17;;;13.10;83.10;;;;;;4893672;29;20067;-82
2024/02/05 04:34:27;;;;;;;6.13;2.67;;;13.10;83.10;;;;;;4893864;29;20409;-82
2024/02/05 04:36:53;;;;;;;8.77;3.13;;;13.10;83.10;;;;;;4886409;29;20045;-80
2024/02/05 04:39:19;;;;;;;7.40;3.03;;;13.10;83.10;;;;;;4888475;29;20093;-88
2024/02/05 04:41:45;;;;;;;6.72;3.00;;;13.10;83.20;;;;;;4870578;29;20402;-80
2024/02/05 04:44:11;;;;;;;5.53;2.90;;;13.10;83.10;;;;;;4886726;29;20036;-82
2024/02/05 04:46:37;;;;;;;5.82;2.95;;;13.00;83.10;;;;;;4889231;29;21564;-87
2024/02/05 04:49:03;;;;;;;6.88;3.15;;;13.00;83.10;;;;;;4885054;29;20044;-77
2024/02/05 04:51:28;;;;;;;6.63;3.28;;;13.00;83.10;;;;;;4890054;29;20033;-88
2024/02/05 04:53:57;;;;;;;5.47;2.80;;;13.10;83.20;;;;;;4885627;29;20487;-80
2024/02/05 04:56:23;;;;;;;5.82;3.00;;;13.10;83.20;;;;;;4886635;29;20029;-82
2024/02/05 04:58:49;;;;;;;7.95;3.33;;;13.10;83.20;;;;;;4890814;29;20040;-82
2024/02/05 05:01:15;;;;;;;5.75;3.30;;;13.00;83.20;;;;;;4891647;29;20133;-87
2024/02/05 05:03:40;;;;;;;6.53;2.90;;;13.10;83.20;;;;;;4891554;29;20029;-88
2024/02/05 05:06:06;;;;;;;6.75;3.05;;;13.00;83.10;;;;;;4879409;29;20027;-77
2024/02/05 05:08:33;;;;;;;7.22;3.25;;;13.00;83.10;;;;;;4892709;29;20398;-81
2024/02/05 05:10:58;;;;;;;5.50;3.05;;;13.00;83.20;;;;;;4872860;29;20037;-81
2024/02/05 05:13:24;;;;;;;6.30;3.00;;;13.00;83.20;;;;;;4891150;29;20027;-77
2024/02/05 05:15:50;;;;;;;4.30;2.90;;;13.00;83.20;;;;;;4887466;29;20029;-82
2024/02/05 05:18:16;;;;;;;5.22;2.83;;;13.00;83.20;;;;;;4873937;29;20124;-80
2024/02/05 05:20:42;;;;;;;6.68;2.88;;;13.00;83.20;;;;;;4885677;29;20413;-80
2024/02/05 05:23:08;;;;;;;8.25;3.53;;;13.00;83.20;;;;;;4902869;29;20369;-88
2024/02/05 05:25:36;;;;;;;5.57;2.90;;;13.00;83.20;;;;;;4891894;29;20067;-91
2024/02/05 05:28:03;;;;;;;6.03;3.00;;;13.00;83.20;;;;;;4877933;29;20037;-77
2024/02/05 05:30:29;;;;;;;4.75;2.78;;;13.00;83.20;;;;;;4903981;29;20076;-85
2024/02/05 05:32:55;;;;;;;7.18;2.70;;;13.00;83.20;;;;;;4889446;29;20321;-78
2024/02/05 05:35:20;;;;;;;6.57;2.60;;;13.00;83.20;;;;;;4890226;29;20024;-79
2024/02/05 05:37:46;;;;;;;7.47;2.85;;;13.00;83.20;;;;;;4878831;29;20406;-76
2024/02/05 05:40:12;;;;;;;7.82;2.97;;;13.00;83.20;;;;;;4892220;29;20029;-92
2024/02/05 05:42:38;;;;;;;5.55;3.05;;;13.00;83.20;;;;;;4880511;29;20029;-93
2024/02/05 05:45:06;;;;;;;6.68;3.05;;;13.00;83.20;;;;;;4875408;29;20048;-80
2024/02/05 05:47:32;;;;;;;4.85;2.72;;;13.00;83.20;;;;;;4876112;29;20072;-85
2024/02/05 05:49:58;;;;;;;6.43;3.22;;;13.00;83.30;;;;;;4885269;29;20439;-93
2024/02/05 05:52:24;;;;;;;4.75;2.83;;;12.90;83.20;;;;;;4887806;29;20032;-81
2024/02/05 05:54:49;;;;;;;4.50;2.53;;;13.00;83.20;;;;;;4890101;29;20119;-85
2024/02/05 05:57:15;;;;;;;5.72;3.13;;;12.90;83.20;;;;;;4888033;29;20029;-85
2024/02/05 05:59:41;;;;;;;5.30;2.90;;;13.00;83.20;;;;;;4875739;29;20039;-83
2024/02/05 06:02:08;;;;;;;7.90;2.95;;;12.90;83.80;;;;;;4905528;29;20056;-89
2024/02/05 06:04:36;;;;;;;5.13;3.10;;;12.90;83.20;;;;;;4887062;29;20557;-78
2024/02/05 06:07:06;;;;;;;5.32;3.28;;;12.90;83.20;;;;;;4874230;29;20028;-76
2024/02/05 06:09:32;;;;;;;5.88;2.72;;;12.90;83.20;;;;;;4890522;29;20040;-91
2024/02/05 06:11:58;;;;;;;7.38;2.90;;;12.90;83.20;;;;;;4894345;29;20029;-77
2024/02/05 06:14:24;;;;;;;4.75;2.60;;;12.90;83.20;;;;;;4879440;29;20610;-82
2024/02/05 06:16:50;;;;;;;7.65;2.72;;;12.90;83.20;;;;;;4893323;29;20594;-77
2024/02/05 06:19:17;;;;;;;5.80;2.85;;;12.90;83.20;;;;;;4877789;29;20040;-93
2024/02/05 06:21:43;;;;;;;5.53;2.85;;;12.90;83.20;;;;;;4898737;29;20028;-83
2024/02/05 06:24:09;;;;;;;6.00;2.70;;;12.90;83.20;;;;;;4890960;29;20112;-84
2024/02/05 06:26:34;;;;;;;5.88;2.65;;;12.90;83.20;;;;;;4897838;29;20533;-83
2024/02/05 06:29:00;;;;;;;7.18;3.45;;;12.90;83.20;;;;;;4893108;29;20428;-96
2024/02/05 06:31:26;;;;;;;5.05;2.75;;;12.90;83.20;;;;;;4897946;29;20067;-96
2024/02/05 06:33:52;;;;;;;5.18;2.97;;;12.90;83.20;;;;;;4905754;29;20115;-83
2024/02/05 06:36:17;;;;;;;7.50;2.90;;;12.90;83.20;;;;;;4897455;29;20056;-96
2024/02/05 06:38:43;;;;;;;5.65;3.05;;;12.90;83.20;;;;;;4900671;29;20146;-83
2024/02/05 06:41:09;;;;;;;4.82;2.70;;;12.90;83.20;;;;;;4897579;29;20033;-83
2024/02/05 06:43:35;;;;;;;6.32;3.47;;;12.90;83.20;;;;;;4897451;29;20132;-77
2024/02/05 06:46:02;;;;;;;7.65;3.72;;;12.90;83.20;;;;;;4899569;29;20024;-83
2024/02/05 06:48:31;;;;;;;5.22;3.08;;;12.90;83.20;;;;;;4885953;29;20028;-83
2024/02/05 06:50:57;;;;;;;5.32;2.88;;;12.90;83.20;;;;;;4874830;29;20039;-77
2024/02/05 06:53:23;;;;;;;5.63;3.03;;;12.90;83.20;;;;;;4893745;29;20040;-77
2024/02/05 06:55:49;;;;;;;4.38;2.35;;;12.90;83.20;;;;;;4881423;29;20029;-83
2024/02/05 06:58:14;;;;;;;5.45;2.85;;;12.90;83.20;;;;;;4892817;29;20027;-78
2024/02/05 07:00:41;;;;;;;6.72;3.20;;;12.90;83.20;;;;;;4891633;29;20021;-82
2024/02/05 07:03:07;;;;;;;4.85;2.85;;;12.80;83.20;;;;;;4892066;29;20113;-95
2024/02/05 07:05:33;;;;;;;5.38;2.90;;;12.80;83.10;;;;;;4902786;29;20033;-95
2024/02/05 07:07:59;;;;;;;4.05;2.53;;;12.80;83.20;;;;;;4907433;29;20033;-77
2024/02/05 07:10:24;;;;;;;5.30;2.60;;;12.80;83.10;;;;;;4877275;29;20088;-94
2024/02/05 07:12:50;;;;;;;6.53;2.92;;;12.80;83.20;;;;;;4880129;29;20021;-95
2024/02/05 07:15:16;;;;;;;7.18;3.15;;;12.80;83.10;;;;;;4887756;29;20096;-78
2024/02/05 07:17:43;;;;;;;5.45;2.85;;;12.80;83.20;;;;;;4887510;29;20033;-94
2024/02/05 07:20:11;;;;;;;6.20;3.00;;;12.80;83.20;;;;;;4897138;29;20028;-81
2024/02/05 07:22:37;;;;;;;6.15;3.15;;;12.80;83.10;;;;;;4907209;29;20187;-77
2024/02/05 07:25:03;;;;;;;7.72;3.80;;;12.80;83.20;;;;;;4873445;29;20127;-78
2024/02/05 07:27:29;;;;;;;5.55;2.78;;;12.80;83.20;;;;;;4895660;29;20044;-96
2024/02/05 07:29:56;;;;;;;4.95;2.92;;;12.80;83.20;;;;;;4914778;29;20029;-96
2024/02/05 07:32:21;;;;;;;7.22;3.10;;;12.80;83.20;;;;;;4906445;29;20037;-82
2024/02/05 07:34:47;;;;;;;6.03;2.78;;;12.80;83.20;;;;;;4908545;29;20086;-82
2024/02/05 07:37:13;;;;;;;5.68;2.70;;;12.80;83.20;;;;;;4890091;29;20064;-82
2024/02/05 07:39:39;;;;;;;6.82;3.08;;;12.80;83.20;;;;;;4890096;29;20065;-82
2024/02/05 07:42:06;;;;;;;4.47;2.65;;;12.80;83.20;;;;;;4887014;29;20071;-81
2024/02/05 07:44:32;;;;;;;6.38;3.10;;;12.80;83.20;;;;;;4898142;29;20036;-77
2024/02/05 07:46:58;;;;;;;5.53;3.08;;;12.80;83.20;;;;;;4873421;29;20025;-81
2024/02/05 07:49:25;;;;;;;5.03;3.00;;;12.80;83.20;;;;;;4878230;29;20020;-77
2024/02/05 07:51:54;;;;;;;5.22;2.95;;;12.80;83.10;;;;;;4898922;29;20036;-95
2024/02/05 07:54:19;;;;;;;5.60;2.88;;;12.80;83.20;;;;;;4900653;29;20382;-82
2024/02/05 07:56:45;;;;;;;7.60;3.20;;;12.80;83.10;;;;;;4868866;29;20060;-77
2024/02/05 07:59:12;;;;;;;4.55;2.92;;;12.70;83.10;;;;;;4890873;29;20013;-96
2024/02/05 08:01:38;;;;;;;7.43;3.03;;;12.80;83.20;;;;;;4912525;29;20046;-81
2024/02/05 08:04:04;;;;;;;6.30;2.60;;;12.70;83.10;;;;;;4897814;29;20386;-82
2024/02/05 08:06:30;;;;;;;6.43;2.72;;;12.70;83.10;;;;;;4896782;29;20035;-81
2024/02/05 08:08:56;;;;;;;5.32;3.17;;;12.70;83.10;;;;;;4896166;29;20123;-78
2024/02/05 08:11:25;;;;;;;7.35;3.67;;;12.70;83.10;;;;;;4886417;29;20033;-96
2024/02/05 08:13:52;;;;;;;6.00;3.10;;;12.70;83.10;;;;;;4895894;29;20116;-82
2024/02/05 08:16:18;;;;;;;4.85;2.75;;;12.70;83.10;;;;;;4915540;29;20079;-93
2024/02/05 08:18:47;;;;;;;5.05;2.92;;;12.70;83.10;;;;;;4890081;29;20028;-95
2024/02/05 08:21:13;;;;;;;5.38;2.70;;;12.80;83.20;;;;;;4901217;29;20035;-95
2024/02/05 08:23:39;;;;;;;8.13;3.30;;;12.70;83.10;;;;;;4896271;29;20025;-82
2024/02/05 08:26:05;;;;;;;5.60;2.97;;;12.70;83.10;;;;;;4892327;29;20025;-82
2024/02/05 08:28:32;;;;;;;5.85;2.92;;;12.70;83.10;;;;;;4880500;29;20043;-80
2024/02/05 08:30:59;;;;;;;7.88;3.55;;;12.70;83.10;;;;;;4895002;29;20478;-82
2024/02/05 08:33:25;;;;;;;6.72;2.97;;;12.70;83.10;;;;;;4874165;29;20031;-81
2024/02/05 08:35:51;;;;;;;6.38;3.10;;;12.70;83.10;;;;;;4888847;29;20561;-82
2024/02/05 08:38:17;;;;;;;5.13;2.90;;;12.70;83.10;;;;;;4892006;29;20028;-77
2024/02/05 08:40:45;;;;;;;5.90;3.10;;;12.70;83.10;;;;;;4894857;29;20033;-94
2024/02/05 08:43:10;;;;;;;7.30;3.40;;;12.70;83.10;;;;;;4880217;29;20115;-94
2024/02/05 08:45:36;;;;;;;6.47;3.00;;;12.70;83.10;;;;;;4878894;29;20123;-82
2024/02/05 08:48:03;;;;;;;4.65;2.83;;;12.70;83.10;;;;;;4896121;29;20032;-82
2024/02/05 08:50:33;;;;;;;6.65;3.33;;;12.70;83.10;;;;;;4893045;29;20037;-81
2024/02/05 08:53:00;;;;;;;6.00;3.30;;;12.70;83.10;;;;;;4888710;29;20044;-82
2024/02/05 08:55:25;;;;;;;5.05;3.38;;;12.70;83.10;;;;;;4878657;29;20064;-81
2024/02/05 08:57:51;;;;;;;5.55;3.15;;;12.70;83.10;;;;;;4891624;29;20060;-93
2024/02/05 09:00:19;;;;;;;5.53;3.05;;;12.70;83.10;;;;;;4884466;29;20044;-82
2024/02/05 09:02:50;;;;;;;6.38;3.30;;;12.70;83.10;;;;;;4900265;29;20048;-82
2024/02/05 09:05:16;;;;;;;6.43;3.30;;;12.70;83.10;;;;;;4877891;29;20127;-82
2024/02/05 09:07:42;;;;;;;6.85;3.58;;;12.70;83.10;;;;;;4888643;29;20036;-81
2024/02/05 09:10:08;;;;;;;5.35;2.92;;;12.70;83.10;;;;;;4886196;29;20037;-93
2024/02/05 09:12:34;;;;;;;6.95;3.90;;;12.70;83.10;;;;;;4872247;29;20131;-81
2024/02/05 09:15:01;;;;;;;6.90;3.45;;;12.80;83.10;;;;;;4896119;29;20406;-77
2024/02/05 09:17:27;;;;;;;8.23;3.72;;;12.80;83.10;;;;;;4874118;29;20482;-81
2024/02/05 09:19:52;;;;;;;6.63;3.95;;;12.80;83.10;;;;;;4888409;29;20032;-77
2024/02/05 09:22:18;;;;;;;5.30;3.65;;;12.80;83.10;;;;;;4897747;29;20374;-82
2024/02/05 09:24:45;;;;;;;7.15;3.80;;;12.70;83.00;;;;;;4884470;29;20044;-93
2024/02/05 09:27:11;;;;;;;6.90;4.03;;;12.70;83.00;;;;;;4881620;29;20084;-81
2024/02/05 09:29:37;;;;;;;7.78;4.32;;;12.80;83.00;;;;;;4891906;29;20033;-77
2024/02/05 09:32:05;;;;;;;6.90;4.13;;;12.80;83.00;;;;;;4895957;29;20037;-93
2024/02/05 09:34:31;;;;;;;6.68;3.95;;;12.80;83.00;;;;;;4886266;29;20052;-94
2024/02/05 09:36:57;;;;;;;5.85;3.90;;;12.80;83.00;;;;;;4898116;29;20458;-77
2024/02/05 09:39:23;;;;;;;6.68;4.65;;;12.80;83.00;;;;;;4868279;29;20067;-92
2024/02/05 09:41:52;;;;;;;7.38;4.65;;;12.80;83.00;;;;;;4889075;29;20033;-82
2024/02/05 09:44:19;;;;;;;6.15;4.38;;;12.80;83.00;;;;;;4873270;29;20033;-77
2024/02/05 09:46:49;;;;;;;5.50;4.05;;;12.80;83.00;;;;;;4893681;29;20028;-82
2024/02/05 09:49:17;;;;;;;6.68;4.60;;;12.80;83.00;;;;;;4900809;29;20070;-77
2024/02/05 09:51:44;;;;;;;7.25;4.75;;;12.80;83.00;;;;;;4895672;29;20036;-77
2024/02/05 09:54:11;;;;;;;7.28;4.22;;;12.80;83.00;;;;;;4886842;29;20028;-77
2024/02/05 09:56:37;;;;;;;10.65;5.47;;;12.80;83.00;;;;;;4889534;29;20041;-81
2024/02/05 09:59:03;;;;;;;6.57;4.72;;;12.80;83.00;;;;;;4878595;29;20124;-92
2024/02/05 10:01:32;;;;;;;7.50;4.50;;;12.80;83.00;;;;;;4894202;29;20049;-94
2024/02/05 10:04:00;;;;;;;6.88;4.55;;;12.80;83.00;;;;;;4899446;29;20060;-81
2024/02/05 10:06:33;;;;;;;7.03;5.03;;;12.80;83.00;;;;;;4909175;29;20028;-91
2024/02/05 10:09:04;;;;;;;7.50;4.72;;;12.80;83.00;;;;;;4886651;29;20044;-81
2024/02/05 10:11:57;;;;;;;6.93;4.30;;;12.80;83.00;;;;;;4879920;29;20036;-77
2024/02/05 10:14:25;;;;;;;7.82;4.68;;;12.80;83.10;;;;;;4896117;29;21077;-81
2024/02/05 10:16:52;;;;;;;7.20;4.45;;;12.80;83.00;;;;;;4906577;29;20103;-77
2024/02/05 10:19:18;;;;;;;8.05;5.13;;;12.80;83.00;;;;;;4878808;29;20021;-93
2024/02/05 10:21:44;;;;;;;7.45;4.53;;;12.80;83.00;;;;;;4889825;29;20063;-85
2024/02/05 10:24:14;;;;;;;6.82;4.40;;;12.80;83.00;;;;;;4887265;29;20036;-82
2024/02/05 10:26:41;;;;;;;7.25;4.18;;;12.80;83.00;;;;;;4890630;29;20029;-82
2024/02/05 10:29:08;;;;;;;8.02;4.78;;;12.80;83.00;;;;;;4876908;29;20037;-83
2024/02/05 10:31:44;;;;;;;6.88;4.28;;;12.80;83.00;;;;;;4898380;29;20033;-79
2024/02/05 10:34:23;;;;;;;5.90;3.95;;;12.80;83.00;;;;;;4881498;29;20028;-78
2024/02/05 10:36:50;;;;;;;6.15;4.50;;;12.80;83.00;;;;;;4893963;29;20028;-93
2024/02/05 10:39:19;;;;;;;7.20;3.78;;;12.80;82.90;;;;;;4906273;29;20486;-84
2024/02/05 10:41:46;;;;;;;6.88;4.07;;;12.80;82.90;;;;;;4879323;29;20040;-82
2024/02/05 10:44:12;;;;;;;5.97;3.92;;;12.80;82.90;;;;;;4876342;29;20386;-82
2024/02/05 10:46:37;;;;;;;7.40;4.10;;;12.90;83.00;;;;;;4918970;29;20024;-79
2024/02/05 10:49:03;;;;;;;7.07;3.80;;;12.90;83.00;;;;;;4892333;29;20055;-82
2024/02/05 10:51:30;;;;;;;6.10;3.85;;;12.90;82.90;;;;;;4876367;29;20040;-83
2024/02/05 10:53:57;;;;;;;7.10;4.10;;;12.90;82.90;;;;;;4897875;29;20084;-82
2024/02/05 10:56:23;;;;;;;5.65;3.17;;;12.90;82.90;;;;;;4893880;29;20020;-82
2024/02/05 10:58:55;;;;;;;7.32;3.60;;;12.90;82.90;;;;;;4891648;29;20133;-82
2024/02/05 11:01:24;;;;;;;6.72;3.70;;;12.90;82.90;;;;;;4897609;29;20131;-92
2024/02/05 11:03:53;;;;;;;6.57;3.28;;;12.90;82.90;;;;;;4896472;29;20162;-78
2024/02/05 11:06:20;;;;;;;5.50;3.03;;;13.00;82.90;;;;;;4889150;29;20526;-78
2024/02/05 11:08:47;;;;;;;6.30;3.53;;;12.90;82.80;;;;;;4892508;29;20041;-82
2024/02/05 11:11:14;;;;;;;6.35;3.13;;;12.90;82.80;;;;;;4890665;29;20296;-82
2024/02/05 11:13:54;;;;;;;6.97;3.67;;;13.00;82.90;;;;;;4901261;29;20024;-96
2024/02/05 11:16:21;;;;;;;5.50;3.42;;;13.00;82.90;;;;;;4896611;29;20497;-78
2024/02/05 11:18:51;;;;;;;6.22;3.88;;;13.00;82.80;;;;;;4902194;29;20507;-83
2024/02/05 11:21:28;;;;;;;5.28;2.97;;;13.00;82.90;;;;;;4869061;29;20029;-94
2024/02/05 11:23:55;;;;;;;8.40;3.53;;;13.00;82.80;;;;;;4902137;29;20041;-82
2024/02/05 11:26:21;;;;;;;5.90;3.22;;;13.00;82.80;;;;;;4897536;29;20114;-78
2024/02/05 11:28:55;;;;;;;6.00;3.33;;;13.00;82.80;;;;;;4886770;29;20032;-82
2024/02/05 11:31:26;;;;;;;5.07;3.20;;;13.00;82.80;;;;;;4892753;29;20033;-77
2024/02/05 11:34:01;;;;;;;7.05;3.30;;;13.10;82.80;;;;;;4888006;29;20028;-83
2024/02/05 11:36:27;;;;;;;5.45;3.17;;;13.10;82.80;;;;;;4893868;29;20036;-78
2024/02/05 11:39:03;;;;;;;5.45;3.05;;;13.10;82.80;;;;;;4902617;29;20036;-82
2024/02/05 11:41:30;;;;;;;6.47;3.15;;;13.10;82.80;;;;;;4888571;29;20030;-78
2024/02/05 11:44:07;;;;;;;6.72;3.35;;;13.10;82.70;;;;;;4880204;29;20020;-93
2024/02/05 11:46:36;;;;;;;6.47;3.13;;;13.10;82.80;;;;;;4897172;29;20138;-94
2024/02/05 11:49:02;;;;;;;5.47;2.80;;;13.10;82.70;;;;;;4884461;29;20582;-82
2024/02/05 11:51:29;;;;;;;6.05;3.10;;;13.10;82.70;;;;;;4901865;29;20063;-95
2024/02/05 11:53:55;;;;;;;6.50;3.90;;;13.10;82.70;;;;;;4890762;29;20180;-93
2024/02/05 11:56:22;;;;;;;4.57;3.08;;;13.20;82.80;;;;;;4901915;29;20486;-78
2024/02/05 11:58:49;;;;;;;5.25;3.20;;;13.20;82.70;;;;;;4881214;29;20485;-78
2024/02/05 12:01:16;;;;;;;6.70;3.20;;;13.20;82.70;;;;;;4871114;29;20032;-80
2024/02/05 12:03:44;;;;;;;6.57;4.10;;;13.20;82.70;;;;;;4885415;29;20064;-82
2024/02/05 12:06:13;;;;;;;6.10;3.50;;;13.20;82.70;;;;;;4891763;29;20068;-78
2024/02/05 12:08:43;;;;;;;6.95;3.75;;;13.20;82.70;;;;;;4885281;29;20065;-78
2024/02/05 12:11:09;;;;;;;7.85;4.00;;;13.20;82.70;;;;;;4887029;29;20520;-77
2024/02/05 12:13:35;;;;;;;5.57;3.33;;;13.30;82.70;;;;;;4892713;29;20405;-83
2024/02/05 12:16:08;;;;;;;5.43;3.17;;;13.20;82.70;;;;;;4882815;29;20025;-79
2024/02/05 12:18:34;;;;;;;4.82;3.15;;;13.30;82.80;;;;;;4894014;29;20037;-88
2024/02/05 12:21:00;;;;;;;5.47;3.45;;;13.30;82.60;;;;;;4901627;29;20044;-79
2024/02/05 12:23:26;;;;;;;6.15;3.58;;;13.30;82.70;;;;;;4904570;29;20124;-82
2024/02/05 12:25:51;;;;;;;6.10;3.22;;;13.30;82.60;;;;;;4877224;29;20503;-81
2024/02/05 12:28:18;;;;;;;7.53;4.32;;;13.40;82.70;;;;;;4895010;29;20256;-79
2024/02/05 12:30:44;;;;;;;7.15;3.80;;;13.40;82.70;;;;;;4873405;29;20046;-91
2024/02/05 12:33:14;;;;;;;6.38;3.60;;;13.40;82.60;;;;;;4884080;29;20032;-90
2024/02/05 12:35:40;;;;;;;7.38;4.05;;;13.40;82.70;;;;;;4893702;29;20469;-78
2024/02/05 12:38:07;;;;;;;8.82;4.45;;;13.40;83.20;;;;;;4882477;29;20397;-89
2024/02/05 12:40:33;;;;;;;7.93;4.32;;;13.40;82.60;;;;;;4882530;29;20025;-82
2024/02/05 12:43:02;;;;;;;7.30;4.25;;;13.40;82.60;;;;;;4894264;29;20107;-89
2024/02/05 12:45:28;;;;;;;6.72;3.78;;;13.40;82.60;;;;;;4890850;29;20037;-79
2024/02/05 12:47:55;;;;;;;7.82;4.18;;;13.50;82.60;;;;;;4887613;29;20035;-78